createdAt,value
2023-11-24T00:00:41.000Z,281.96
2023-11-24T00:02:07.000Z,282.01
2023-11-24T00:04:14.000Z,282.02
2023-11-24T00:06:59.000Z,282.01
2023-11-24T00:08:25.000Z,282.01
2023-11-24T00:10:31.000Z,282.05
2023-11-24T00:11:58.000Z,282.09
2023-11-24T00:14:04.000Z,282.09
2023-11-24T00:15:31.000Z,281.96
2023-11-24T00:17:37.000Z,281.58
2023-11-24T00:19:03.000Z,281.19
2023-11-24T00:21:09.000Z,280.89
2023-11-24T00:22:36.000Z,280.65
2023-11-24T00:24:42.000Z,280.51
2023-11-24T00:26:08.000Z,280.42
2023-11-24T00:28:15.000Z,280.35
2023-11-24T00:29:41.000Z,280.3
2023-11-24T00:31:48.000Z,280.3
2023-11-24T00:33:14.000Z,280.27
2023-11-24T00:35:21.000Z,280.27
2023-11-24T00:36:47.000Z,280.25
2023-11-24T00:38:54.000Z,280.24
2023-11-24T00:40:20.000Z,280.23
2023-11-24T00:42:26.000Z,280.23
2023-11-24T00:45:11.000Z,280.14
2023-11-24T00:46:38.000Z,280.12
2023-11-24T00:48:44.000Z,280.09
2023-11-24T00:50:11.000Z,280.06
2023-11-24T00:52:17.000Z,280.03
2023-11-24T00:53:44.000Z,279.99
2023-11-24T00:55:50.000Z,279.98
2023-11-24T00:57:16.000Z,279.98
2023-11-24T00:59:22.000Z,279.95
2023-11-24T01:00:49.000Z,279.93
2023-11-24T01:02:55.000Z,279.93
2023-11-24T01:04:22.000Z,279.93
2023-11-24T01:06:28.000Z,279.92
2023-11-24T01:07:54.000Z,279.93
2023-11-24T01:10:01.000Z,279.93
2023-11-24T01:11:27.000Z,279.93
2023-11-24T01:13:33.000Z,279.92
2023-11-24T01:15:00.000Z,279.89
2023-11-24T01:17:06.000Z,279.88
2023-11-24T01:18:33.000Z,279.88
2023-11-24T01:20:39.000Z,279.88
2023-11-24T01:23:24.000Z,279.86
2023-11-24T01:24:51.000Z,279.88
2023-11-24T01:26:57.000Z,279.88
2023-11-24T01:28:24.000Z,279.86
2023-11-24T01:30:31.000Z,279.86
2023-11-24T01:31:57.000Z,279.85
2023-11-24T01:34:03.000Z,279.85
2023-11-24T01:35:30.000Z,279.84
2023-11-24T01:37:36.000Z,279.82
2023-11-24T01:39:03.000Z,279.8
2023-11-24T01:41:09.000Z,279.81
2023-11-24T01:42:35.000Z,279.81
2023-11-24T01:44:42.000Z,279.8
2023-11-24T01:46:08.000Z,279.8
2023-11-24T01:48:15.000Z,279.8
2023-11-24T01:49:41.000Z,279.8
2023-11-24T01:51:48.000Z,279.77
2023-11-24T01:53:14.000Z,279.77
2023-11-24T01:55:21.000Z,279.76
2023-11-24T01:56:47.000Z,279.74
2023-11-24T01:58:53.000Z,279.72
2023-11-24T02:01:39.000Z,279.66
2023-11-24T02:03:06.000Z,279.63
2023-11-24T02:05:12.000Z,279.6
2023-11-24T02:06:38.000Z,279.58
2023-11-24T02:08:45.000Z,279.56
2023-11-24T02:10:11.000Z,279.54
2023-11-24T02:12:17.000Z,279.52
2023-11-24T02:13:44.000Z,279.52
2023-11-24T02:15:50.000Z,279.54
2023-11-24T02:17:17.000Z,279.52
2023-11-24T02:19:23.000Z,279.52
2023-11-24T02:20:49.000Z,279.51
2023-11-24T02:22:56.000Z,279.49
2023-11-24T02:24:22.000Z,279.48
2023-11-24T02:26:30.000Z,279.47
2023-11-24T02:27:56.000Z,279.45
2023-11-24T02:30:03.000Z,279.45
2023-11-24T02:31:30.000Z,279.45
2023-11-24T02:33:36.000Z,279.48
2023-11-24T02:35:03.000Z,279.48
2023-11-24T02:37:09.000Z,279.47
2023-11-24T02:39:54.000Z,279.48
2023-11-24T02:41:21.000Z,279.48
2023-11-24T02:43:27.000Z,279.45
2023-11-24T02:44:53.000Z,279.38
2023-11-24T02:47:00.000Z,279.34
2023-11-24T02:48:26.000Z,279.33
2023-11-24T02:50:33.000Z,279.28
2023-11-24T02:51:59.000Z,279.19
2023-11-24T02:54:05.000Z,279.17
2023-11-24T02:55:32.000Z,279.12
2023-11-24T02:57:38.000Z,279.09
2023-11-24T02:59:05.000Z,279.05
2023-11-24T03:01:12.000Z,279.02
2023-11-24T03:02:39.000Z,278.94
2023-11-24T03:04:45.000Z,278.9
2023-11-24T03:06:12.000Z,278.88
2023-11-24T03:08:18.000Z,278.86
2023-11-24T03:09:44.000Z,278.83
2023-11-24T03:11:51.000Z,278.78
2023-11-24T03:13:18.000Z,278.79
2023-11-24T03:15:24.000Z,278.75
2023-11-24T03:18:09.000Z,278.69
2023-11-24T03:19:36.000Z,278.64
2023-11-24T03:21:42.000Z,278.65
2023-11-24T03:23:09.000Z,278.62
2023-11-24T03:25:15.000Z,278.61
2023-11-24T03:26:41.000Z,278.62
2023-11-24T03:28:48.000Z,278.62
2023-11-24T03:30:14.000Z,278.65
2023-11-24T03:32:20.000Z,278.62
2023-11-24T03:33:47.000Z,278.65
2023-11-24T03:35:53.000Z,278.64
2023-11-24T03:37:20.000Z,278.62
2023-11-24T03:39:26.000Z,278.57
2023-11-24T03:40:52.000Z,278.53
2023-11-24T03:42:58.000Z,278.51
2023-11-24T03:44:25.000Z,278.49
2023-11-24T03:46:31.000Z,278.47
2023-11-24T03:47:57.000Z,278.44
2023-11-24T03:50:04.000Z,278.42
2023-11-24T03:51:30.000Z,278.39
2023-11-24T03:53:36.000Z,278.36
2023-11-24T03:56:21.000Z,278.3
2023-11-24T03:57:48.000Z,278.29
2023-11-24T03:59:54.000Z,278.25
2023-11-24T04:01:21.000Z,278.18
2023-11-24T04:03:27.000Z,278.14
2023-11-24T04:04:54.000Z,278.06
2023-11-24T04:07:00.000Z,278.02
2023-11-24T04:08:27.000Z,277.96
2023-11-24T04:10:33.000Z,277.95
2023-11-24T04:11:59.000Z,277.92
2023-11-24T04:14:05.000Z,277.89
2023-11-24T04:15:32.000Z,277.85
2023-11-24T04:17:38.000Z,277.78
2023-11-24T04:19:05.000Z,277.72
2023-11-24T04:21:11.000Z,277.71
2023-11-24T04:22:37.000Z,277.7
2023-11-24T04:24:44.000Z,277.64
2023-11-24T04:26:10.000Z,277.6
2023-11-24T04:28:16.000Z,277.56
2023-11-24T04:29:43.000Z,277.53
2023-11-24T04:31:49.000Z,277.53
2023-11-24T04:34:34.000Z,277.49
2023-11-24T04:36:01.000Z,277.46
2023-11-24T04:38:07.000Z,277.43
2023-11-24T04:39:34.000Z,277.41
2023-11-24T04:41:40.000Z,277.48
2023-11-24T04:43:06.000Z,277.46
2023-11-24T04:45:14.000Z,277.48
2023-11-24T04:46:40.000Z,277.45
2023-11-24T04:48:46.000Z,277.38
2023-11-24T04:50:13.000Z,277.38
2023-11-24T04:52:19.000Z,277.36
2023-11-24T04:53:46.000Z,277.36
2023-11-24T04:55:52.000Z,277.36
2023-11-24T04:57:18.000Z,277.38
2023-11-24T04:59:25.000Z,277.4
2023-11-24T05:00:51.000Z,277.46
2023-11-24T05:02:59.000Z,277.45
2023-11-24T05:04:25.000Z,277.45
2023-11-24T05:06:31.000Z,277.45
2023-11-24T05:07:58.000Z,277.43
2023-11-24T05:10:04.000Z,277.46
2023-11-24T05:12:49.000Z,277.48
2023-11-24T05:14:16.000Z,277.46
2023-11-24T05:16:22.000Z,277.43
2023-11-24T05:17:49.000Z,277.43
2023-11-24T05:19:55.000Z,277.43
2023-11-24T05:21:21.000Z,277.43
2023-11-24T05:23:27.000Z,277.41
2023-11-24T05:24:54.000Z,277.36
2023-11-24T05:27:00.000Z,277.33
2023-11-24T05:28:26.000Z,277.37
2023-11-24T05:30:33.000Z,277.37
2023-11-24T05:32:00.000Z,277.36
2023-11-24T05:34:09.000Z,277.33
2023-11-24T05:35:35.000Z,277.3
2023-11-24T05:37:41.000Z,277.3
2023-11-24T05:39:08.000Z,277.31
2023-11-24T05:41:14.000Z,277.31
2023-11-24T05:42:40.000Z,277.3
2023-11-24T05:44:47.000Z,277.29
2023-11-24T05:46:13.000Z,277.3
2023-11-24T05:48:20.000Z,277.29
2023-11-24T05:51:05.000Z,277.27
2023-11-24T05:52:31.000Z,277.29
2023-11-24T05:54:38.000Z,277.31
2023-11-24T05:56:04.000Z,277.34
2023-11-24T05:58:11.000Z,277.34
2023-11-24T05:59:37.000Z,277.37
2023-11-24T06:01:44.000Z,277.36
2023-11-24T06:03:10.000Z,277.43
2023-11-24T06:05:16.000Z,277.46
2023-11-24T06:06:44.000Z,277.51
2023-11-24T06:08:50.000Z,277.51
2023-11-24T06:10:16.000Z,277.53
2023-11-24T06:12:23.000Z,277.52
2023-11-24T06:13:49.000Z,277.53
2023-11-24T06:15:55.000Z,277.55
2023-11-24T06:17:22.000Z,277.53
2023-11-24T06:19:29.000Z,277.53
2023-11-24T06:20:55.000Z,277.6
2023-11-24T06:23:01.000Z,277.64
2023-11-24T06:24:28.000Z,277.65
2023-11-24T06:26:34.000Z,277.65
2023-11-24T06:29:19.000Z,277.68
2023-11-24T06:30:46.000Z,277.7
2023-11-24T06:32:52.000Z,277.72
2023-11-24T06:34:18.000Z,277.72
2023-11-24T06:36:25.000Z,277.74
2023-11-24T06:37:51.000Z,277.72
2023-11-24T06:39:57.000Z,277.71
2023-11-24T06:41:24.000Z,277.7
2023-11-24T06:43:30.000Z,277.67
2023-11-24T06:44:57.000Z,277.68
2023-11-24T06:47:03.000Z,277.67
2023-11-24T06:48:29.000Z,277.65
2023-11-24T06:50:36.000Z,277.64
2023-11-24T06:52:03.000Z,277.61
2023-11-24T06:54:09.000Z,277.61
2023-11-24T06:55:35.000Z,277.56
2023-11-24T06:57:42.000Z,277.56
2023-11-24T06:59:09.000Z,277.55
2023-11-24T07:01:15.000Z,277.55
2023-11-24T07:02:41.000Z,277.49
2023-11-24T07:04:48.000Z,277.48
2023-11-24T07:07:33.000Z,277.41
2023-11-24T07:09:00.000Z,277.38
2023-11-24T07:11:06.000Z,277.37
2023-11-24T07:12:32.000Z,277.34
2023-11-24T07:14:38.000Z,277.33
2023-11-24T07:16:05.000Z,277.3
2023-11-24T07:18:11.000Z,277.29
2023-11-24T07:19:38.000Z,277.29
2023-11-24T07:21:44.000Z,277.3
2023-11-24T07:23:11.000Z,277.3
2023-11-24T07:25:17.000Z,277.3
2023-11-24T07:26:43.000Z,277.3
2023-11-24T07:28:49.000Z,277.29
2023-11-24T07:30:16.000Z,277.3
2023-11-24T07:32:22.000Z,277.3
2023-11-24T07:33:49.000Z,277.3
2023-11-24T07:35:55.000Z,277.3
2023-11-24T07:37:21.000Z,277.31
2023-11-24T07:39:28.000Z,277.29
2023-11-24T07:40:54.000Z,277.29
2023-11-24T07:43:00.000Z,277.27
2023-11-24T07:45:45.000Z,277.27
2023-11-24T07:47:12.000Z,277.27
2023-11-24T07:49:18.000Z,277.26
2023-11-24T07:50:45.000Z,277.23
2023-11-24T07:52:51.000Z,277.25
2023-11-24T07:54:18.000Z,277.25
2023-11-24T07:56:24.000Z,277.2
2023-11-24T07:57:51.000Z,277.19
2023-11-24T07:59:57.000Z,277.15
2023-11-24T08:01:23.000Z,277.13
2023-11-24T08:03:30.000Z,277.11
2023-11-24T08:04:57.000Z,277.11
2023-11-24T08:07:03.000Z,277.08
2023-11-24T08:08:30.000Z,277.06
2023-11-24T08:10:36.000Z,277.05
2023-11-24T08:12:02.000Z,277.06
2023-11-24T08:14:09.000Z,277.08
2023-11-24T08:15:35.000Z,277.16
2023-11-24T08:17:41.000Z,277.22
2023-11-24T08:19:08.000Z,277.27
2023-11-24T08:21:14.000Z,277.29
2023-11-24T08:23:59.000Z,277.36
2023-11-24T08:25:26.000Z,277.38
2023-11-24T08:27:32.000Z,277.38
2023-11-24T08:28:58.000Z,277.36
2023-11-24T08:31:04.000Z,277.37
2023-11-24T08:32:31.000Z,277.4
2023-11-24T08:34:37.000Z,277.46
2023-11-24T08:36:04.000Z,277.52
2023-11-24T08:38:10.000Z,277.53
2023-11-24T08:39:36.000Z,277.61
2023-11-24T08:41:43.000Z,277.67
2023-11-24T08:43:09.000Z,277.68
2023-11-24T08:45:16.000Z,277.67
2023-11-24T08:46:42.000Z,277.63
2023-11-24T08:48:49.000Z,277.64
2023-11-24T08:50:15.000Z,277.71
2023-11-24T08:52:21.000Z,277.75
2023-11-24T08:53:48.000Z,277.85
2023-11-24T08:55:54.000Z,277.86
2023-11-24T08:57:24.000Z,277.89
2023-11-24T08:59:30.000Z,277.88
2023-11-24T09:02:15.000Z,277.91
2023-11-24T09:03:42.000Z,277.92
2023-11-24T09:05:48.000Z,277.92
2023-11-24T09:07:14.000Z,277.86
2023-11-24T09:09:21.000Z,277.81
2023-11-24T09:10:47.000Z,277.75
2023-11-24T09:12:53.000Z,277.78
2023-11-24T09:14:20.000Z,277.79
2023-11-24T09:16:26.000Z,277.78
2023-11-24T09:17:53.000Z,277.79
2023-11-24T09:19:59.000Z,277.81
2023-11-24T09:21:25.000Z,277.84
2023-11-24T09:23:31.000Z,277.86
2023-11-24T09:24:58.000Z,277.93
2023-11-24T09:27:04.000Z,277.97
2023-11-24T09:28:30.000Z,278.02
2023-11-24T09:30:36.000Z,278.03
2023-11-24T09:32:03.000Z,278.03
2023-11-24T09:34:09.000Z,278
2023-11-24T09:35:36.000Z,278
2023-11-24T09:37:42.000Z,278.02
2023-11-24T09:40:28.000Z,278.03
2023-11-24T09:41:54.000Z,278.06
2023-11-24T09:44:00.000Z,278.07
2023-11-24T09:45:27.000Z,278.1
2023-11-24T09:47:33.000Z,278.11
2023-11-24T09:49:00.000Z,278.14
2023-11-24T09:51:06.000Z,278.16
2023-11-24T09:52:32.000Z,278.22
2023-11-24T09:54:39.000Z,278.24
2023-11-24T09:56:05.000Z,278.3
2023-11-24T09:58:11.000Z,278.32
2023-11-24T09:59:38.000Z,278.32
2023-11-24T10:01:44.000Z,278.29
2023-11-24T10:03:11.000Z,278.25
2023-11-24T10:05:17.000Z,278.24
2023-11-24T10:06:43.000Z,278.2
2023-11-24T10:08:49.000Z,278.2
2023-11-24T10:10:16.000Z,278.2
2023-11-24T10:12:22.000Z,278.22
2023-11-24T10:13:49.000Z,278.24
2023-11-24T10:15:57.000Z,278.25
2023-11-24T10:18:43.000Z,278.24
2023-11-24T10:20:09.000Z,278.22
2023-11-24T10:22:15.000Z,278.24
2023-11-24T10:23:42.000Z,278.24
2023-11-24T10:25:48.000Z,278.24
2023-11-24T10:27:14.000Z,278.22
2023-11-24T10:29:21.000Z,278.2
2023-11-24T10:30:47.000Z,278.14
2023-11-24T10:32:54.000Z,278.11
2023-11-24T10:34:20.000Z,278.07
2023-11-24T10:36:27.000Z,278.04
2023-11-24T10:37:53.000Z,278.02
2023-11-24T10:39:59.000Z,277.99
2023-11-24T10:41:26.000Z,277.93
2023-11-24T10:43:32.000Z,277.91
2023-11-24T10:44:58.000Z,277.92
2023-11-24T10:47:05.000Z,277.95
2023-11-24T10:48:31.000Z,277.95
2023-11-24T10:50:37.000Z,277.93
2023-11-24T10:52:04.000Z,277.92
2023-11-24T10:54:10.000Z,277.89
2023-11-24T10:56:55.000Z,277.86
2023-11-24T10:58:22.000Z,277.84
2023-11-24T11:00:28.000Z,277.84
2023-11-24T11:01:55.000Z,277.85
2023-11-24T11:04:01.000Z,277.89
2023-11-24T11:05:28.000Z,277.92
2023-11-24T11:07:34.000Z,277.97
2023-11-24T11:09:02.000Z,278.02
2023-11-24T11:11:09.000Z,278.1
2023-11-24T11:12:35.000Z,278.18
2023-11-24T11:14:42.000Z,278.29
2023-11-24T11:16:09.000Z,278.32
2023-11-24T11:18:15.000Z,278.32
2023-11-24T11:19:42.000Z,278.3
2023-11-24T11:21:49.000Z,278.3
2023-11-24T11:23:15.000Z,278.28
2023-11-24T11:25:21.000Z,278.26
2023-11-24T11:26:48.000Z,278.25
2023-11-24T11:28:54.000Z,278.26
2023-11-24T11:30:21.000Z,278.32
2023-11-24T11:32:27.000Z,278.42
2023-11-24T11:35:13.000Z,278.51
2023-11-24T11:36:39.000Z,278.49
2023-11-24T11:38:45.000Z,278.46
2023-11-24T11:40:12.000Z,278.46
2023-11-24T11:42:18.000Z,278.47
2023-11-24T11:43:45.000Z,278.5
2023-11-24T11:45:51.000Z,278.51
2023-11-24T11:47:17.000Z,278.53
2023-11-24T11:49:25.000Z,278.49
2023-11-24T11:50:52.000Z,278.47
2023-11-24T11:52:58.000Z,278.46
2023-11-24T11:54:24.000Z,278.42
2023-11-24T11:56:31.000Z,278.37
2023-11-24T11:57:57.000Z,278.3
2023-11-24T12:00:04.000Z,278.25
2023-11-24T12:01:30.000Z,278.14
2023-11-24T12:03:38.000Z,278.07
2023-11-24T12:05:04.000Z,277.82
2023-11-24T12:07:10.000Z,277.13
2023-11-24T12:08:37.000Z,276.53
2023-11-24T12:10:43.000Z,276.06
2023-11-24T12:13:29.000Z,275.38
2023-11-24T12:14:55.000Z,275.1
2023-11-24T12:17:02.000Z,274.97
2023-11-24T12:18:28.000Z,274.84
2023-11-24T12:20:35.000Z,274.81
2023-11-24T12:22:01.000Z,274.77
2023-11-24T12:24:07.000Z,274.76
2023-11-24T12:25:43.000Z,274.73
2023-11-24T12:27:49.000Z,274.78
2023-11-24T12:29:16.000Z,274.8
2023-11-24T12:31:22.000Z,274.83
2023-11-24T12:32:49.000Z,274.87
2023-11-24T12:34:55.000Z,274.91
2023-11-24T12:36:22.000Z,274.98
2023-11-24T12:38:28.000Z,275.02
2023-11-24T12:39:55.000Z,275.04
2023-11-24T12:42:01.000Z,275.02
2023-11-24T12:43:27.000Z,274.98
2023-11-24T12:45:33.000Z,274.98
2023-11-24T12:47:00.000Z,274.98
2023-11-24T12:49:07.000Z,274.98
2023-11-24T12:51:52.000Z,274.99
2023-11-24T12:53:18.000Z,275.02
2023-11-24T12:55:25.000Z,275.01
2023-11-24T12:56:51.000Z,274.99
2023-11-24T12:58:58.000Z,274.99
2023-11-24T13:00:24.000Z,275.05
2023-11-24T13:02:31.000Z,275.12
2023-11-24T13:03:57.000Z,275.19
2023-11-24T13:06:04.000Z,275.22
2023-11-24T13:07:30.000Z,275.28
2023-11-24T13:09:36.000Z,275.3
2023-11-24T13:11:03.000Z,275.41
2023-11-24T13:13:09.000Z,275.5
2023-11-24T13:14:36.000Z,275.56
2023-11-24T13:16:42.000Z,275.6
2023-11-24T13:18:08.000Z,275.67
2023-11-24T13:20:15.000Z,275.74
2023-11-24T13:21:41.000Z,275.87
2023-11-24T13:23:47.000Z,275.91
2023-11-24T13:25:14.000Z,275.89
2023-11-24T13:27:20.000Z,275.91
2023-11-24T13:30:05.000Z,275.89
2023-11-24T13:31:32.000Z,275.88
2023-11-24T13:33:42.000Z,275.89
2023-11-24T13:35:08.000Z,275.92
2023-11-24T13:37:15.000Z,275.99
2023-11-24T13:38:42.000Z,276.02
2023-11-24T13:40:48.000Z,276.03
2023-11-24T13:42:15.000Z,276.02
2023-11-24T13:44:21.000Z,276
2023-11-24T13:45:47.000Z,276
2023-11-24T13:47:54.000Z,275.99
2023-11-24T13:49:20.000Z,275.96
2023-11-24T13:51:27.000Z,275.96
2023-11-24T13:52:53.000Z,275.96
2023-11-24T13:54:59.000Z,276
2023-11-24T13:56:26.000Z,276.02
2023-11-24T13:58:32.000Z,276.06
2023-11-24T13:59:59.000Z,276.1
2023-11-24T14:02:05.000Z,276.1
2023-11-24T14:03:32.000Z,276.08
2023-11-24T14:05:38.000Z,276.11
2023-11-24T14:08:23.000Z,276.1
2023-11-24T14:09:50.000Z,276.08
2023-11-24T14:11:56.000Z,276.07
2023-11-24T14:13:22.000Z,276.08
2023-11-24T14:15:29.000Z,276.08
2023-11-24T14:16:55.000Z,276.11
2023-11-24T14:19:01.000Z,276.1
2023-11-24T14:20:28.000Z,276.1
2023-11-24T14:22:34.000Z,276.08
2023-11-24T14:24:01.000Z,276.06
2023-11-24T14:26:07.000Z,276.03
2023-11-24T14:27:34.000Z,276.02
2023-11-24T14:29:40.000Z,276
2023-11-24T14:31:06.000Z,275.99
2023-11-24T14:33:13.000Z,275.99
2023-11-24T14:34:39.000Z,275.96
2023-11-24T14:36:45.000Z,275.92
2023-11-24T14:38:12.000Z,275.88
2023-11-24T14:40:18.000Z,275.88
2023-11-24T14:41:48.000Z,275.89
2023-11-24T14:43:54.000Z,275.88
2023-11-24T14:46:40.000Z,275.87
2023-11-24T14:48:06.000Z,275.89
2023-11-24T14:50:13.000Z,275.89
2023-11-24T14:51:39.000Z,275.87
2023-11-24T14:53:46.000Z,275.87
2023-11-24T14:55:12.000Z,275.88
2023-11-24T14:57:18.000Z,275.87
2023-11-24T14:58:45.000Z,275.85
2023-11-24T15:00:51.000Z,275.85
2023-11-24T15:02:17.000Z,275.85
2023-11-24T15:04:24.000Z,275.82
2023-11-24T15:05:50.000Z,275.81
2023-11-24T15:07:57.000Z,275.78
2023-11-24T15:09:23.000Z,275.74
2023-11-24T15:11:30.000Z,275.7
2023-11-24T15:12:56.000Z,275.67
2023-11-24T15:15:03.000Z,275.7
2023-11-24T15:16:29.000Z,275.71
2023-11-24T15:18:36.000Z,275.73
2023-11-24T15:20:03.000Z,275.75
2023-11-24T15:22:09.000Z,275.75
2023-11-24T15:24:54.000Z,275.77
2023-11-24T15:26:21.000Z,275.78
2023-11-24T15:28:27.000Z,275.78
2023-11-24T15:29:54.000Z,275.77
2023-11-24T15:32:00.000Z,275.78
2023-11-24T15:33:27.000Z,275.74
2023-11-24T15:35:33.000Z,275.71
2023-11-24T15:36:59.000Z,275.7
2023-11-24T15:39:06.000Z,275.69
2023-11-24T15:40:32.000Z,275.69
2023-11-24T15:42:39.000Z,275.66
2023-11-24T15:44:05.000Z,275.66
2023-11-24T15:46:11.000Z,275.66
2023-11-24T15:47:38.000Z,275.67
2023-11-24T15:49:45.000Z,275.69
2023-11-24T15:51:12.000Z,275.69
2023-11-24T15:53:18.000Z,275.69
2023-11-24T15:54:45.000Z,275.71
2023-11-24T15:56:51.000Z,275.73
2023-11-24T15:58:17.000Z,275.71
2023-11-24T16:00:23.000Z,275.66
2023-11-24T16:03:09.000Z,275.6
2023-11-24T16:04:35.000Z,275.55
2023-11-24T16:06:42.000Z,275.49
2023-11-24T16:08:08.000Z,275.42
2023-11-24T16:10:15.000Z,275.37
2023-11-24T16:11:42.000Z,275.31
2023-11-24T16:13:48.000Z,275.27
2023-11-24T16:15:14.000Z,275.27
2023-11-24T16:17:21.000Z,275.27
2023-11-24T16:18:47.000Z,275.24
2023-11-24T16:20:53.000Z,275.22
2023-11-24T16:22:20.000Z,275.2
2023-11-24T16:24:26.000Z,275.2
2023-11-24T16:25:53.000Z,275.19
2023-11-24T16:27:59.000Z,275.17
2023-11-24T16:29:25.000Z,275.16
2023-11-24T16:31:31.000Z,275.17
2023-11-24T16:32:58.000Z,275.19
2023-11-24T16:35:04.000Z,275.16
2023-11-24T16:36:31.000Z,275.24
2023-11-24T16:38:37.000Z,275.3
2023-11-24T16:41:23.000Z,275.3
2023-11-24T16:42:49.000Z,275.27
2023-11-24T16:44:55.000Z,275.23
2023-11-24T16:46:22.000Z,275.23
2023-11-24T16:48:28.000Z,275.23
2023-11-24T16:49:55.000Z,275.22
2023-11-24T16:52:01.000Z,275.2
2023-11-24T16:53:27.000Z,275.17
2023-11-24T16:55:33.000Z,275.17
2023-11-24T16:57:00.000Z,275.15
2023-11-24T16:59:07.000Z,275.15
2023-11-24T17:00:33.000Z,275.13
2023-11-24T17:02:39.000Z,275.15
2023-11-24T17:04:06.000Z,275.15
2023-11-24T17:06:12.000Z,275.2
2023-11-24T17:07:39.000Z,275.27
2023-11-24T17:09:45.000Z,275.28
2023-11-24T17:11:11.000Z,275.32
2023-11-24T17:13:18.000Z,275.32
2023-11-24T17:14:44.000Z,275.35
2023-11-24T17:16:50.000Z,275.35
2023-11-24T17:19:36.000Z,275.35
2023-11-24T17:21:02.000Z,275.34
2023-11-24T17:23:09.000Z,275.34
2023-11-24T17:24:35.000Z,275.32
2023-11-24T17:26:41.000Z,275.32
2023-11-24T17:28:08.000Z,275.31
2023-11-24T17:30:14.000Z,275.31
2023-11-24T17:31:41.000Z,275.3
2023-11-24T17:33:47.000Z,275.3
2023-11-24T17:35:13.000Z,275.28
2023-11-24T17:37:20.000Z,275.24
2023-11-24T17:38:46.000Z,275.17
2023-11-24T17:40:52.000Z,275.12
2023-11-24T17:42:19.000Z,275.05
2023-11-24T17:44:25.000Z,275.01
2023-11-24T17:45:51.000Z,274.97
2023-11-24T17:47:58.000Z,274.92
2023-11-24T17:49:24.000Z,274.9
2023-11-24T17:51:31.000Z,274.88
2023-11-24T17:52:57.000Z,274.85
2023-11-24T17:55:04.000Z,274.84
2023-11-24T17:57:49.000Z,274.8
2023-11-24T17:59:16.000Z,274.78
2023-11-24T18:01:23.000Z,274.76
2023-11-24T18:02:49.000Z,274.72
2023-11-24T18:04:55.000Z,274.69
2023-11-24T18:06:22.000Z,274.66
2023-11-24T18:08:28.000Z,274.65
2023-11-24T18:09:54.000Z,274.65
2023-11-24T18:12:01.000Z,274.65
2023-11-24T18:13:27.000Z,274.66
2023-11-24T18:15:33.000Z,274.68
2023-11-24T18:17:00.000Z,274.71
2023-11-24T18:19:06.000Z,274.71
2023-11-24T18:20:33.000Z,274.71
2023-11-24T18:22:39.000Z,274.72
2023-11-24T18:24:05.000Z,274.72
2023-11-24T18:26:12.000Z,274.76
2023-11-24T18:27:38.000Z,274.78
2023-11-24T18:29:44.000Z,274.8
2023-11-24T18:31:11.000Z,274.85
2023-11-24T18:33:17.000Z,274.9
2023-11-24T18:36:02.000Z,274.95
2023-11-24T18:37:29.000Z,274.99
2023-11-24T18:39:35.000Z,274.99
2023-11-24T18:41:02.000Z,275.02
2023-11-24T18:43:08.000Z,275.02
2023-11-24T18:44:34.000Z,275.05
2023-11-24T18:46:41.000Z,275.05
2023-11-24T18:48:07.000Z,275.06
2023-11-24T18:50:13.000Z,275.05
2023-11-24T18:51:40.000Z,275.06
2023-11-24T18:53:46.000Z,275.06
2023-11-24T18:55:12.000Z,275.08
2023-11-24T18:57:19.000Z,275.08
2023-11-24T18:58:45.000Z,275.04
2023-11-24T19:00:51.000Z,274.99
2023-11-24T19:02:18.000Z,274.98
2023-11-24T19:04:24.000Z,274.97
2023-11-24T19:05:51.000Z,274.98
2023-11-24T19:07:57.000Z,274.99
2023-11-24T19:09:23.000Z,275.01
2023-11-24T19:11:29.000Z,274.97
2023-11-24T19:14:15.000Z,274.95
2023-11-24T19:15:41.000Z,274.94
2023-11-24T19:17:47.000Z,274.91
2023-11-24T19:19:14.000Z,274.94
2023-11-24T19:21:20.000Z,274.97
2023-11-24T19:22:51.000Z,274.98
2023-11-24T19:24:57.000Z,274.99
2023-11-24T19:26:24.000Z,274.95
2023-11-24T19:28:30.000Z,274.94
2023-11-24T19:29:57.000Z,274.92
2023-11-24T19:32:04.000Z,274.91
2023-11-24T19:33:30.000Z,274.91
2023-11-24T19:35:37.000Z,274.9
2023-11-24T19:37:03.000Z,274.92
2023-11-24T19:39:09.000Z,274.92
2023-11-24T19:40:36.000Z,274.94
2023-11-24T19:42:42.000Z,274.95
2023-11-24T19:44:09.000Z,274.95
2023-11-24T19:46:15.000Z,274.99
2023-11-24T19:47:41.000Z,274.99
2023-11-24T19:49:48.000Z,275.02
2023-11-24T19:52:33.000Z,275.02
2023-11-24T19:54:00.000Z,275.02
2023-11-24T19:56:06.000Z,275.02
2023-11-24T19:57:33.000Z,275.02
2023-11-24T19:59:39.000Z,275.02
2023-11-24T20:01:06.000Z,275.01
2023-11-24T20:03:12.000Z,274.99
2023-11-24T20:04:39.000Z,274.97
2023-11-24T20:06:45.000Z,274.97
2023-11-24T20:08:12.000Z,274.94
2023-11-24T20:10:18.000Z,274.92
2023-11-24T20:11:44.000Z,274.91
2023-11-24T20:13:51.000Z,274.94
2023-11-24T20:15:17.000Z,274.94
2023-11-24T20:17:24.000Z,274.91
2023-11-24T20:18:50.000Z,274.94
2023-11-24T20:20:57.000Z,274.97
2023-11-24T20:22:23.000Z,275.04
2023-11-24T20:24:29.000Z,275.05
2023-11-24T20:25:56.000Z,275.08
2023-11-24T20:28:02.000Z,275.09
2023-11-24T20:30:47.000Z,275.15
2023-11-24T20:32:14.000Z,275.15
2023-11-24T20:34:20.000Z,275.13
2023-11-24T20:35:47.000Z,275.1
2023-11-24T20:37:53.000Z,275.06
2023-11-24T20:39:20.000Z,275.02
2023-11-24T20:41:26.000Z,274.99
2023-11-24T20:42:52.000Z,274.97
2023-11-24T20:44:59.000Z,274.97
2023-11-24T20:46:25.000Z,274.92
2023-11-24T20:48:31.000Z,274.91
2023-11-24T20:49:58.000Z,274.9
2023-11-24T20:52:04.000Z,274.87
2023-11-24T20:53:31.000Z,274.84
2023-11-24T20:55:37.000Z,274.85
2023-11-24T20:57:03.000Z,274.87
2023-11-24T20:59:10.000Z,274.92
2023-11-24T21:00:36.000Z,274.95
2023-11-24T21:02:42.000Z,274.98
2023-11-24T21:04:09.000Z,274.98
2023-11-24T21:06:15.000Z,274.98
2023-11-24T21:09:01.000Z,274.95
2023-11-24T21:10:27.000Z,274.97
2023-11-24T21:12:33.000Z,274.95
2023-11-24T21:14:00.000Z,274.98
2023-11-24T21:16:06.000Z,274.99
2023-11-24T21:17:33.000Z,275.04
2023-11-24T21:19:39.000Z,275.08
2023-11-24T21:21:06.000Z,275.06
2023-11-24T21:23:12.000Z,275.05
2023-11-24T21:24:38.000Z,275.01
2023-11-24T21:26:44.000Z,275.02
2023-11-24T21:28:11.000Z,275.04
2023-11-24T21:30:17.000Z,275.04
2023-11-24T21:31:44.000Z,275.02
2023-11-24T21:33:52.000Z,274.99
2023-11-24T21:35:18.000Z,274.98
2023-11-24T21:37:25.000Z,274.95
2023-11-24T21:38:51.000Z,274.95
2023-11-24T21:40:58.000Z,274.94
2023-11-24T21:42:24.000Z,274.92
2023-11-24T21:44:30.000Z,274.9
2023-11-24T21:47:15.000Z,274.87
2023-11-24T21:48:42.000Z,274.84
2023-11-24T21:50:48.000Z,274.83
2023-11-24T21:52:15.000Z,274.8
2023-11-24T21:54:21.000Z,274.77
2023-11-24T21:55:47.000Z,274.77
2023-11-24T21:57:54.000Z,274.76
2023-11-24T21:59:20.000Z,274.72
2023-11-24T22:01:26.000Z,274.72
2023-11-24T22:02:53.000Z,274.72
2023-11-24T22:05:00.000Z,274.73
2023-11-24T22:06:26.000Z,274.73
2023-11-24T22:08:32.000Z,274.73
2023-11-24T22:09:59.000Z,274.72
2023-11-24T22:12:05.000Z,274.73
2023-11-24T22:13:32.000Z,274.72
2023-11-24T22:15:38.000Z,274.72
2023-11-24T22:17:04.000Z,274.71
2023-11-24T22:19:11.000Z,274.71
2023-11-24T22:20:38.000Z,274.69
2023-11-24T22:22:44.000Z,274.69
2023-11-24T22:25:29.000Z,274.64
2023-11-24T22:26:56.000Z,274.61
2023-11-24T22:29:02.000Z,274.61
2023-11-24T22:30:29.000Z,274.59
2023-11-24T22:32:35.000Z,274.58
2023-11-24T22:34:01.000Z,274.54
2023-11-24T22:36:07.000Z,274.51
2023-11-24T22:37:34.000Z,274.5
2023-11-24T22:39:40.000Z,274.51
2023-11-24T22:41:07.000Z,274.5
2023-11-24T22:43:13.000Z,274.5
2023-11-24T22:44:39.000Z,274.49
2023-11-24T22:46:46.000Z,274.49
2023-11-24T22:48:12.000Z,274.44